Weather at 401 City Avenue Heliport

Public forecast

Using degrees Fahrenheit for public forecast. Weather courtesy of forecast.io.

Closest aviation weather report (METAR) to 401 City Avenue Heliport

Closest report is Wings Field, 8.0 nm (14.9 km) NNW. Retrieved 2022/01/22 21:15 UTC (10 minutes ago):

KLOM 222115Z AUTO 00000KT 10SM CLR M02/M18 A3022 RMK AO2 T10211176

Closest aviation forecast (TAF) to 401 City Avenue Heliport

Closest forecast is Philadelphia International Airport, 8.4 nm (15.5 km) S. Retrieved 2022/01/22 18:37 UTC (3 hours ago):

TAF KPHL 221733Z 2218/2324 VRB03KT P6SM SCT200 FM230600 25005KT P6SM SCT200 FM231400 26009KT P6SM SCT120 BKN200 FM231800 26009KT P6SM SCT035 OVC070 FM232200 27004KT P6SM -SN SCT025 OVC050